createdAt,value
2022-12-28T00:02:44.601Z,4.61
2022-12-28T00:08:06.546Z,4.49
2022-12-28T00:13:30.679Z,4.50
2022-12-28T00:18:53.063Z,4.54
2022-12-28T00:24:21.722Z,4.53
2022-12-28T00:29:43.666Z,4.51
2022-12-28T00:35:06.126Z,4.47
2022-12-28T00:40:28.070Z,4.48
2022-12-28T00:45:50.266Z,4.49
2022-12-28T00:51:18.223Z,4.36
2022-12-28T00:56:41.869Z,4.38
2022-12-28T01:02:03.893Z,4.30
2022-12-28T01:07:25.910Z,4.43
2022-12-28T01:12:47.888Z,4.16
2022-12-28T01:18:09.762Z,4.13
2022-12-28T01:23:34.580Z,4.13
2022-12-28T01:28:58.225Z,3.94
2022-12-28T01:34:20.107Z,4.00
2022-12-28T01:39:42.120Z,4.01
2022-12-28T01:45:21.789Z,4.02
2022-12-28T01:50:44.604Z,3.86
2022-12-28T01:56:06.762Z,4.17
2022-12-28T02:01:29.404Z,4.11
2022-12-28T02:06:52.292Z,4.19
2022-12-28T02:12:17.013Z,4.20
2022-12-28T02:17:39.164Z,4.19
2022-12-28T02:23:36.108Z,4.05
2022-12-28T02:29:16.464Z,4.10
2022-12-28T02:34:57.018Z,3.82
2022-12-28T02:40:25.911Z,3.70
2022-12-28T02:45:49.301Z,3.60
2022-12-28T02:51:29.867Z,3.44
2022-12-28T02:57:04.043Z,3.25
2022-12-28T03:02:48.904Z,3.16
2022-12-28T03:08:17.556Z,3.03
2022-12-28T03:14:29.013Z,2.96
2022-12-28T03:19:57.176Z,2.92
2022-12-28T03:25:23.436Z,2.78
2022-12-28T03:30:52.255Z,2.62
2022-12-28T03:36:52.224Z,2.54
2022-12-28T03:42:26.481Z,2.47
2022-12-28T03:47:51.979Z,2.50
2022-12-28T03:53:15.357Z,2.39
2022-12-28T03:58:37.215Z,2.46
2022-12-28T04:03:59.036Z,2.32
2022-12-28T04:09:20.885Z,2.24
2022-12-28T04:14:42.694Z,2.11
2022-12-28T04:20:05.575Z,2.21
2022-12-28T04:25:27.460Z,2.23
2022-12-28T04:30:49.280Z,2.28
2022-12-28T04:36:14.505Z,2.03
2022-12-28T04:41:36.510Z,1.81
2022-12-28T04:46:58.352Z,1.78
2022-12-28T04:52:20.223Z,1.77
2022-12-28T04:57:45.961Z,1.76
2022-12-28T05:03:08.207Z,1.83
2022-12-28T05:08:37.289Z,1.85
2022-12-28T05:13:59.187Z,1.75
2022-12-28T05:19:21.018Z,1.64
2022-12-28T05:24:42.831Z,1.64
2022-12-28T05:30:05.204Z,1.56
2022-12-28T05:35:27.019Z,1.42
2022-12-28T05:40:49.080Z,1.41
2022-12-28T05:46:18.055Z,1.33
2022-12-28T05:51:40.323Z,1.30
2022-12-28T05:57:02.189Z,1.27
2022-12-28T06:02:24.872Z,1.15
2022-12-28T06:07:46.796Z,1.05
2022-12-28T06:13:08.646Z,1.05
2022-12-28T06:18:30.455Z,0.91
2022-12-28T06:23:55.127Z,0.89
2022-12-28T06:29:17.048Z,0.97
2022-12-28T06:34:38.904Z,0.96
2022-12-28T06:40:00.724Z,0.96
2022-12-28T06:45:22.752Z,0.89
2022-12-28T06:50:44.589Z,0.93
2022-12-28T06:56:08.709Z,0.99
2022-12-28T07:01:36.524Z,1.11
2022-12-28T07:06:58.516Z,1.21
2022-12-28T07:12:20.371Z,1.27
2022-12-28T07:17:42.220Z,1.42
2022-12-28T07:23:04.044Z,1.53
2022-12-28T07:28:25.899Z,1.78
2022-12-28T07:33:48.874Z,2.46
2022-12-28T07:39:10.766Z,5.91
2022-12-28T07:44:36.894Z,6.87
2022-12-28T07:50:00.114Z,5.06
2022-12-28T07:55:22.005Z,4.75
2022-12-28T08:00:43.858Z,3.93
2022-12-28T08:06:08.575Z,3.46
2022-12-28T08:11:33.504Z,3.24
2022-12-28T08:16:55.383Z,3.09
2022-12-28T08:22:17.317Z,4.09
2022-12-28T08:27:39.207Z,4.12
2022-12-28T08:33:01.027Z,5.94
2022-12-28T08:38:22.860Z,7.25
2022-12-28T08:43:45.744Z,5.26
2022-12-28T08:49:07.856Z,5.00
2022-12-28T08:54:29.724Z,4.10
2022-12-28T08:59:51.582Z,3.75
2022-12-28T09:05:13.430Z,3.74
2022-12-28T09:10:35.887Z,3.98
2022-12-28T09:16:12.604Z,4.11
2022-12-28T09:21:37.432Z,5.11
2022-12-28T09:26:59.269Z,6.49
2022-12-28T09:32:21.180Z,6.11
2022-12-28T09:37:43.031Z,6.08
2022-12-28T09:43:05.651Z,5.94
2022-12-28T09:48:27.652Z,5.96
2022-12-28T09:53:49.590Z,6.09
2022-12-28T09:59:18.539Z,5.94
2022-12-28T10:04:45.753Z,5.89
2022-12-28T10:10:17.220Z,6.24
2022-12-28T10:15:39.490Z,6.45
2022-12-28T10:21:01.701Z,6.31
2022-12-28T10:26:23.545Z,6.54
2022-12-28T10:32:02.805Z,6.66
2022-12-28T10:37:27.332Z,6.64
2022-12-28T10:42:52.573Z,6.58
2022-12-28T10:48:24.862Z,6.51
2022-12-28T10:53:51.777Z,6.44
2022-12-28T10:59:13.583Z,6.25
2022-12-28T11:04:35.504Z,6.29
2022-12-28T11:10:21.517Z,5.76
2022-12-28T11:15:43.394Z,5.83
2022-12-28T11:21:05.404Z,5.70
2022-12-28T11:26:28.915Z,5.59
2022-12-28T11:32:04.193Z,5.35
2022-12-28T11:37:26.132Z,5.30
2022-12-28T11:42:56.174Z,5.33
2022-12-28T11:49:02.668Z,5.31
2022-12-28T11:54:37.076Z,5.46
2022-12-28T12:00:22.643Z,5.50
2022-12-28T12:05:50.070Z,5.57
2022-12-28T12:11:26.975Z,5.47
2022-12-28T12:16:57.211Z,5.34
2022-12-28T12:22:24.243Z,5.37
2022-12-28T12:27:54.116Z,5.42
2022-12-28T12:33:26.638Z,5.50
2022-12-28T12:39:09.771Z,5.54
2022-12-28T12:44:55.973Z,5.38
2022-12-28T12:50:21.746Z,5.30
2022-12-28T12:56:07.578Z,5.16
2022-12-28T13:01:54.575Z,5.06
2022-12-28T13:07:25.550Z,5.11
2022-12-28T13:12:47.594Z,5.16
2022-12-28T13:24:02.125Z,5.11
2022-12-28T13:29:27.300Z,5.00
2022-12-28T13:34:49.861Z,5.01
2022-12-28T13:40:15.889Z,5.03
2022-12-28T13:45:38.037Z,5.00
2022-12-28T13:51:00.041Z,4.92
2022-12-28T13:56:23.262Z,4.99
2022-12-28T14:01:49.207Z,5.02
2022-12-28T14:07:17.161Z,5.00
2022-12-28T14:12:39.400Z,4.98
2022-12-28T14:18:02.354Z,5.01
2022-12-28T14:23:29.546Z,4.81
2022-12-28T14:28:54.236Z,4.84
2022-12-28T14:34:26.893Z,4.72
2022-12-28T14:39:48.734Z,4.89
2022-12-28T14:51:28.252Z,4.62
2022-12-28T14:57:02.978Z,4.90
2022-12-28T15:02:51.383Z,4.89
2022-12-28T15:08:13.652Z,4.96
2022-12-28T15:13:35.590Z,4.99
2022-12-28T15:18:57.443Z,5.05
2022-12-28T15:24:22.680Z,5.16
2022-12-28T15:30:05.043Z,5.15
2022-12-28T15:35:27.422Z,5.16
2022-12-28T15:40:55.335Z,5.14
2022-12-28T15:46:17.225Z,5.09
2022-12-28T15:51:40.561Z,5.21
2022-12-28T15:57:02.507Z,5.32
2022-12-28T16:02:24.493Z,5.27
2022-12-28T16:07:46.486Z,5.33
2022-12-28T16:13:08.343Z,5.25
2022-12-28T16:18:30.192Z,5.34
2022-12-28T16:23:52.612Z,5.37
2022-12-28T16:29:14.607Z,5.38
2022-12-28T16:34:36.440Z,5.29
2022-12-28T16:39:58.254Z,5.22
2022-12-28T16:45:20.156Z,5.33
2022-12-28T16:50:42.514Z,5.35
2022-12-28T16:56:05.686Z,5.48
2022-12-28T17:01:28.668Z,5.41
2022-12-28T17:06:52.025Z,5.46
2022-12-28T17:12:13.907Z,5.52
2022-12-28T17:17:35.788Z,5.51
2022-12-28T17:22:57.725Z,5.55
2022-12-28T17:28:20.028Z,5.49
2022-12-28T17:33:50.077Z,5.54
2022-12-28T17:39:11.988Z,5.63
2022-12-28T17:44:34.073Z,5.64
2022-12-28T17:49:56.048Z,5.64
2022-12-28T17:55:17.999Z,5.64
2022-12-28T18:00:39.953Z,5.67
2022-12-28T18:06:01.859Z,5.67
2022-12-28T18:11:23.761Z,5.73
2022-12-28T18:16:45.729Z,5.76
2022-12-28T18:22:07.648Z,5.85
2022-12-28T18:27:29.593Z,5.91
2022-12-28T18:32:51.628Z,5.90
2022-12-28T18:38:13.553Z,6.06
2022-12-28T18:43:35.416Z,6.01
2022-12-28T18:48:57.268Z,6.04
2022-12-28T18:54:19.156Z,6.04
2022-12-28T18:59:40.980Z,6.08
2022-12-28T19:05:03.824Z,6.04
2022-12-28T19:10:25.805Z,6.10
2022-12-28T19:15:47.751Z,6.11
2022-12-28T19:21:39.058Z,6.17
2022-12-28T19:27:00.928Z,6.14
2022-12-28T19:32:22.917Z,6.19
2022-12-28T19:37:44.768Z,6.27
2022-12-28T19:43:06.630Z,6.29
2022-12-28T19:48:28.453Z,6.38
2022-12-28T19:53:50.431Z,6.37
2022-12-28T19:59:12.312Z,6.45
2022-12-28T20:04:34.309Z,6.40
2022-12-28T20:09:56.359Z,6.43
2022-12-28T20:15:18.236Z,6.46
2022-12-28T20:21:09.291Z,6.48
2022-12-28T20:26:23.532Z,6.36
2022-12-28T20:31:45.540Z,6.35
2022-12-28T20:37:07.508Z,6.53
2022-12-28T20:42:29.339Z,6.57
2022-12-28T20:47:52.780Z,6.50
2022-12-28T20:53:15.675Z,6.58
2022-12-28T20:58:38.306Z,6.51
2022-12-28T21:04:00.330Z,6.53
2022-12-28T21:09:22.311Z,6.51
2022-12-28T21:14:44.127Z,6.54
2022-12-28T21:20:06.408Z,6.48
2022-12-28T21:25:28.260Z,6.56
2022-12-28T21:30:54.959Z,6.56
2022-12-28T21:36:18.599Z,6.47
2022-12-28T21:41:40.520Z,6.61
2022-12-28T21:47:02.376Z,6.63
2022-12-28T21:52:24.291Z,6.60
2022-12-28T21:57:50.094Z,6.52
2022-12-28T22:03:12.030Z,6.54
2022-12-28T22:08:34.188Z,6.57
2022-12-28T22:13:56.014Z,6.59
2022-12-28T22:19:17.855Z,6.60
2022-12-28T22:24:39.680Z,6.63
2022-12-28T22:30:01.547Z,6.64
2022-12-28T22:35:23.932Z,6.60
2022-12-28T22:40:45.769Z,6.56
2022-12-28T22:46:10.804Z,6.63
2022-12-28T22:51:32.717Z,6.59
2022-12-28T22:56:54.606Z,6.64
2022-12-28T23:02:16.590Z,6.71
2022-12-28T23:07:38.661Z,6.68
2022-12-28T23:13:00.613Z,6.67
2022-12-28T23:18:22.524Z,6.67
2022-12-28T23:23:44.356Z,6.66
2022-12-28T23:29:06.182Z,6.59
2022-12-28T23:34:28.025Z,6.74
2022-12-28T23:39:49.854Z,6.63
2022-12-28T23:45:13.931Z,6.57
2022-12-28T23:50:35.756Z,6.55
2022-12-28T23:55:58.451Z,6.53
